createdAt,value
2018-04-26T00:00:26.493Z,0.00
2018-04-26T00:01:26.491Z,0.00
2018-04-26T00:02:26.483Z,0.00
2018-04-26T00:03:26.490Z,0.00
2018-04-26T00:04:26.480Z,0.00
2018-04-26T00:05:26.474Z,0.00
2018-04-26T00:06:26.474Z,0.00
2018-04-26T00:07:26.471Z,0.00
2018-04-26T00:08:26.466Z,0.00
2018-04-26T00:09:26.464Z,0.00
2018-04-26T00:10:26.464Z,0.00
2018-04-26T00:11:26.460Z,0.00
2018-04-26T00:12:26.448Z,0.00
2018-04-26T00:13:26.449Z,0.00
2018-04-26T00:14:26.443Z,0.00
2018-04-26T00:15:26.445Z,0.00
2018-04-26T00:16:26.454Z,0.00
2018-04-26T00:17:26.481Z,0.00
2018-04-26T00:18:26.430Z,0.00
2018-04-26T00:19:26.438Z,0.00
2018-04-26T00:20:26.426Z,0.00
2018-04-26T00:21:26.425Z,0.00
2018-04-26T00:22:26.474Z,0.00
2018-04-26T00:23:26.479Z,0.00
2018-04-26T00:24:26.431Z,0.00
2018-04-26T00:25:26.413Z,0.00
2018-04-26T00:26:26.412Z,0.00
2018-04-26T00:27:26.404Z,0.00
2018-04-26T00:28:26.409Z,0.00
2018-04-26T00:29:26.398Z,0.00
2018-04-26T00:30:26.393Z,0.00
2018-04-26T00:31:26.390Z,0.00
2018-04-26T00:32:26.414Z,0.00
2018-04-26T00:33:26.370Z,0.00
2018-04-26T00:34:26.383Z,0.00
2018-04-26T00:35:26.380Z,0.00
2018-04-26T00:36:26.375Z,0.00
2018-04-26T00:37:26.368Z,0.00
2018-04-26T00:38:26.365Z,0.00
2018-04-26T00:39:26.359Z,0.00
2018-04-26T00:40:26.359Z,0.00
2018-04-26T00:41:26.376Z,0.00
2018-04-26T00:42:26.354Z,0.00
2018-04-26T00:43:26.344Z,0.00
2018-04-26T00:44:26.349Z,0.00
2018-04-26T00:45:26.336Z,0.00
2018-04-26T00:46:26.366Z,0.00
2018-04-26T00:47:26.374Z,0.00
2018-04-26T00:48:26.343Z,0.00
2018-04-26T00:49:26.326Z,0.00
2018-04-26T00:50:26.306Z,0.00
2018-04-26T00:51:26.309Z,0.00
2018-04-26T00:52:26.360Z,0.00
2018-04-26T00:53:26.369Z,0.00
2018-04-26T00:54:26.304Z,0.00
2018-04-26T00:55:26.302Z,0.00
2018-04-26T00:56:26.297Z,0.00
2018-04-26T00:57:26.290Z,0.00
2018-04-26T00:58:26.287Z,0.00
2018-04-26T00:59:26.282Z,0.00
2018-04-26T01:00:26.280Z,0.00
2018-04-26T01:01:26.319Z,0.00
2018-04-26T01:02:26.273Z,0.00
2018-04-26T01:03:26.273Z,0.00
2018-04-26T01:04:26.269Z,0.00
2018-04-26T01:05:26.295Z,0.00
2018-04-26T01:06:26.262Z,0.00
2018-04-26T01:07:26.248Z,0.00
2018-04-26T01:08:26.254Z,0.00
2018-04-26T01:09:26.240Z,0.00
2018-04-26T01:10:26.241Z,0.00
2018-04-26T01:11:26.238Z,0.00
2018-04-26T02:02:16.968Z,0.00
2018-04-26T02:03:16.911Z,0.00
2018-04-26T02:05:09.716Z,0.00
2018-04-26T02:06:09.681Z,0.00
2018-04-26T02:08:02.584Z,0.00
2018-04-26T02:09:02.562Z,0.00
2018-04-26T02:10:55.524Z,0.00
2018-04-26T02:11:55.496Z,0.00
2018-04-26T02:13:48.509Z,0.00
2018-04-26T02:14:48.490Z,0.00
2018-04-26T02:16:41.307Z,0.00
2018-04-26T02:17:41.278Z,0.00
2018-04-26T02:20:25.372Z,0.00
2018-04-26T02:21:25.335Z,0.00
2018-04-26T02:23:18.171Z,0.00
2018-04-26T02:24:18.149Z,0.00
2018-04-26T02:26:11.071Z,0.00
2018-04-26T02:27:11.054Z,0.00
2018-04-26T02:29:03.971Z,0.00
2018-04-26T02:30:03.957Z,0.00
2018-04-26T02:31:56.985Z,0.00
2018-04-26T02:32:56.860Z,0.00
2018-04-26T02:34:49.780Z,0.00
2018-04-26T02:35:49.765Z,0.00
2018-04-26T02:37:42.705Z,0.00
2018-04-26T02:38:42.681Z,0.00
2018-04-26T02:40:35.669Z,0.00
2018-04-26T02:41:35.634Z,0.00
2018-04-26T02:44:19.628Z,0.00
2018-04-26T02:45:19.624Z,0.00
2018-04-26T02:47:12.574Z,0.00
2018-04-26T02:48:12.539Z,0.00
2018-04-26T02:50:05.503Z,0.00
2018-04-26T02:51:05.495Z,0.00
2018-04-26T02:52:58.444Z,0.00
2018-04-26T02:53:58.489Z,0.00
2018-04-26T02:55:51.330Z,0.00
2018-04-26T02:56:51.340Z,0.00
2018-04-26T02:58:44.263Z,0.00
2018-04-26T02:59:44.287Z,0.00
2018-04-26T03:00:44.204Z,0.00
2018-04-26T03:01:44.202Z,0.00
2018-04-26T03:02:44.193Z,0.00
2018-04-26T03:03:44.185Z,0.00
2018-04-26T03:04:44.188Z,0.00
2018-04-26T03:05:44.180Z,0.00
2018-04-26T03:06:44.174Z,0.00
2018-04-26T03:07:44.174Z,0.00
2018-04-26T03:08:44.169Z,0.00
2018-04-26T03:09:44.164Z,0.00
2018-04-26T03:10:44.160Z,0.00
2018-04-26T03:11:44.156Z,0.00
2018-04-26T03:12:44.151Z,0.00
2018-04-26T03:13:44.147Z,0.00
2018-04-26T03:14:44.147Z,0.00
2018-04-26T03:15:44.146Z,0.00
2018-04-26T03:16:44.141Z,0.00
2018-04-26T03:17:44.143Z,0.00
2018-04-26T03:18:44.131Z,0.00
2018-04-26T03:19:44.130Z,0.00
2018-04-26T03:20:44.122Z,0.00
2018-04-26T03:21:44.122Z,0.00
2018-04-26T03:22:44.121Z,0.00
2018-04-26T03:23:44.111Z,0.00
2018-04-26T03:24:44.103Z,0.00
2018-04-26T03:25:44.107Z,0.00
2018-04-26T03:26:44.096Z,0.00
2018-04-26T03:27:44.097Z,0.00
2018-04-26T03:28:44.119Z,0.00
2018-04-26T03:29:44.092Z,0.00
2018-04-26T03:30:44.089Z,0.00
2018-04-26T03:31:44.090Z,0.00
2018-04-26T03:32:44.079Z,0.00
2018-04-26T03:33:44.077Z,0.00
2018-04-26T03:34:44.073Z,0.00
2018-04-26T03:35:44.075Z,0.00
2018-04-26T03:36:44.076Z,0.00
2018-04-26T03:37:44.114Z,0.00
2018-04-26T03:38:44.054Z,0.00
2018-04-26T03:39:44.051Z,0.00
2018-04-26T03:40:44.045Z,0.00
2018-04-26T03:41:44.048Z,0.00
2018-04-26T03:42:44.052Z,0.00
2018-04-26T03:43:44.039Z,0.00
2018-04-26T03:44:44.029Z,0.00
2018-04-26T03:45:44.047Z,0.00
2018-04-26T03:46:44.027Z,0.00
2018-04-26T03:47:44.047Z,0.00
2018-04-26T03:48:44.019Z,0.00
2018-04-26T03:49:44.025Z,0.00
2018-04-26T03:50:44.010Z,0.00
2018-04-26T03:51:44.011Z,0.00
2018-04-26T03:52:44.001Z,0.00
2018-04-26T03:53:43.999Z,0.00
2018-04-26T03:54:43.994Z,0.00
2018-04-26T03:55:43.995Z,0.00
2018-04-26T03:56:43.987Z,0.00
2018-04-26T03:57:43.988Z,0.00
2018-04-26T03:58:43.981Z,0.00
2018-04-26T03:59:43.969Z,0.00
2018-04-26T04:00:43.969Z,0.00
2018-04-26T04:01:43.964Z,0.00
2018-04-26T04:02:43.969Z,0.00
2018-04-26T04:03:43.958Z,0.00
2018-04-26T04:04:43.957Z,0.00
2018-04-26T04:05:43.949Z,0.00
2018-04-26T04:06:43.945Z,0.00
2018-04-26T04:07:43.947Z,0.00
2018-04-26T04:08:43.940Z,0.00
2018-04-26T04:09:43.930Z,0.00
2018-04-26T04:10:43.962Z,0.00
2018-04-26T04:11:43.968Z,0.00
2018-04-26T04:12:43.980Z,0.00
2018-04-26T04:13:44.038Z,0.00
2018-04-26T04:14:43.947Z,0.00
2018-04-26T04:15:43.993Z,0.00
2018-04-26T04:16:43.917Z,0.00
2018-04-26T04:17:43.920Z,0.00
2018-04-26T04:18:43.908Z,0.00
2018-04-26T04:19:43.912Z,0.00
2018-04-26T04:20:43.922Z,0.00
2018-04-26T04:21:43.922Z,0.00
2018-04-26T04:22:43.931Z,0.00
2018-04-26T04:23:43.954Z,0.00
2018-04-26T04:24:43.944Z,0.00
2018-04-26T04:25:43.946Z,0.00
2018-04-26T04:26:43.879Z,0.00
2018-04-26T04:27:43.871Z,0.00
2018-04-26T04:28:43.874Z,0.00
2018-04-26T04:29:43.877Z,0.00
2018-04-26T04:30:43.895Z,0.00
2018-04-26T04:31:43.895Z,0.00
2018-04-26T04:32:43.879Z,0.00
2018-04-26T04:33:43.917Z,0.00
2018-04-26T04:34:43.896Z,5.63
2018-04-26T04:35:43.840Z,5.63
2018-04-26T04:36:43.832Z,5.63
2018-04-26T04:37:43.838Z,5.63
2018-04-26T04:38:43.837Z,5.63
2018-04-26T04:39:43.836Z,5.63
2018-04-26T04:40:43.840Z,11.25
2018-04-26T04:41:44.683Z,11.25
2018-04-26T04:42:44.679Z,16.88
2018-04-26T04:43:43.908Z,16.88
2018-04-26T04:44:43.795Z,11.25
2018-04-26T04:45:43.779Z,11.25
2018-04-26T04:46:43.797Z,16.88
2018-04-26T04:47:43.800Z,16.88
2018-04-26T04:48:43.805Z,16.88
2018-04-26T04:49:43.808Z,22.50
2018-04-26T04:50:43.819Z,16.88
2018-04-26T04:51:43.827Z,16.88
2018-04-26T04:52:43.833Z,22.50
2018-04-26T04:53:43.749Z,22.50
2018-04-26T04:54:43.741Z,33.75
2018-04-26T04:55:43.761Z,33.75
2018-04-26T04:56:43.741Z,28.13
2018-04-26T04:57:43.752Z,28.13
2018-04-26T04:58:43.762Z,28.13
2018-04-26T04:59:43.755Z,33.75
2018-04-26T05:00:43.769Z,39.38
2018-04-26T05:01:43.758Z,39.38
2018-04-26T05:02:43.704Z,39.38
2018-04-26T05:03:43.704Z,39.38
2018-04-26T05:04:43.703Z,33.75
2018-04-26T05:05:43.719Z,39.38
2018-04-26T05:06:43.705Z,45.00
2018-04-26T05:07:43.734Z,45.00
2018-04-26T05:08:43.734Z,45.00
2018-04-26T05:09:43.707Z,45.00
2018-04-26T05:10:43.696Z,56.25
2018-04-26T05:11:43.658Z,61.88
2018-04-26T05:12:43.666Z,61.88
2018-04-26T05:13:43.682Z,50.63
2018-04-26T05:14:43.663Z,45.00
2018-04-26T05:15:43.666Z,45.00
2018-04-26T05:16:43.670Z,56.25
2018-04-26T05:17:43.677Z,61.88
2018-04-26T05:18:44.696Z,61.88
2018-04-26T05:19:43.654Z,73.13
2018-04-26T05:20:43.601Z,84.38
2018-04-26T05:21:43.599Z,112.50
2018-04-26T05:22:43.594Z,123.75
2018-04-26T05:23:43.586Z,123.75
2018-04-26T05:24:43.598Z,106.88
2018-04-26T05:25:43.655Z,90.00
2018-04-26T05:26:43.568Z,90.00
2018-04-26T05:27:43.573Z,101.25
2018-04-26T05:28:43.559Z,112.50
2018-04-26T05:29:43.573Z,106.88
2018-04-26T05:30:43.547Z,101.25
2018-04-26T05:31:43.554Z,90.00
2018-04-26T05:32:43.549Z,95.63
2018-04-26T05:33:43.550Z,146.25
2018-04-26T05:34:43.540Z,213.75
2018-04-26T05:35:43.525Z,213.75
2018-04-26T05:36:43.516Z,208.13
2018-04-26T05:37:43.517Z,191.25
2018-04-26T05:38:43.527Z,174.38
2018-04-26T05:39:43.535Z,191.25
2018-04-26T05:40:43.503Z,230.63
2018-04-26T05:41:43.502Z,258.75
2018-04-26T05:42:43.499Z,241.88
2018-04-26T05:43:43.490Z,258.75
2018-04-26T05:44:43.492Z,258.75
2018-04-26T05:45:43.484Z,315.00
2018-04-26T05:46:43.482Z,343.13
2018-04-26T05:47:43.512Z,376.88
2018-04-26T05:48:43.474Z,393.75
2018-04-26T05:49:43.470Z,320.63
2018-04-26T05:50:43.526Z,309.38
2018-04-26T05:51:43.456Z,292.50
2018-04-26T05:52:43.454Z,219.38
2018-04-26T05:53:43.441Z,202.50
2018-04-26T05:54:43.439Z,236.25
2018-04-26T05:55:43.519Z,309.38
2018-04-26T05:56:43.431Z,298.13
2018-04-26T05:57:43.429Z,315.00
2018-04-26T05:58:43.450Z,286.88
2018-04-26T05:59:43.425Z,247.50
2018-04-26T06:00:43.442Z,258.75
2018-04-26T06:01:43.416Z,309.38
2018-04-26T06:02:43.456Z,326.25
2018-04-26T06:03:43.433Z,298.13
2018-04-26T06:04:43.407Z,309.38
2018-04-26T06:05:43.399Z,253.13
2018-04-26T06:06:43.397Z,275.63
2018-04-26T06:07:43.403Z,241.88
2018-04-26T06:08:43.393Z,225.00
2018-04-26T06:09:43.387Z,213.75
2018-04-26T06:10:43.377Z,196.88
2018-04-26T06:11:43.407Z,180.00
2018-04-26T06:12:43.376Z,180.00
2018-04-26T06:13:43.367Z,191.25
2018-04-26T06:14:43.368Z,202.50
2018-04-26T06:15:43.364Z,230.63
2018-04-26T06:16:43.365Z,241.88
2018-04-26T06:17:43.358Z,286.88
2018-04-26T06:18:43.351Z,376.88
2018-04-26T06:19:43.343Z,433.13
2018-04-26T06:20:43.347Z,354.38
2018-04-26T06:21:43.341Z,253.13
2018-04-26T06:22:43.341Z,258.75
2018-04-26T06:23:43.329Z,281.25
2018-04-26T06:24:43.327Z,303.75
2018-04-26T06:25:43.329Z,315.00
2018-04-26T06:26:43.325Z,315.00
2018-04-26T06:27:43.322Z,298.13
2018-04-26T06:28:43.306Z,270.00
2018-04-26T06:29:43.318Z,331.88
2018-04-26T06:30:43.311Z,331.88
2018-04-26T06:31:43.303Z,303.75
2018-04-26T06:32:43.307Z,309.38
2018-04-26T06:33:43.298Z,303.75
2018-04-26T06:34:43.323Z,292.50
2018-04-26T06:35:43.291Z,281.25
2018-04-26T06:36:43.298Z,253.13
2018-04-26T06:37:43.282Z,258.75
2018-04-26T06:38:43.303Z,298.13
2018-04-26T06:39:43.286Z,388.13
2018-04-26T06:40:43.285Z,416.25
2018-04-26T06:41:43.276Z,371.25
2018-04-26T06:42:43.278Z,320.63
2018-04-26T06:43:43.259Z,320.63
2018-04-26T06:44:43.263Z,315.00
2018-04-26T06:45:43.263Z,275.63
2018-04-26T06:46:43.257Z,264.38
2018-04-26T06:47:43.267Z,320.63
2018-04-26T06:48:43.246Z,365.63
2018-04-26T06:49:43.243Z,343.13
2018-04-26T06:50:43.311Z,331.88
2018-04-26T06:51:43.239Z,315.00
2018-04-26T06:52:43.240Z,354.38
2018-04-26T06:53:43.228Z,376.88
2018-04-26T06:54:43.228Z,410.63
2018-04-26T06:55:43.231Z,433.13
2018-04-26T06:56:43.230Z,416.25
2018-04-26T06:57:43.213Z,360.00
2018-04-26T06:58:43.225Z,331.88
2018-04-26T06:59:43.217Z,337.50
2018-04-26T07:00:43.210Z,343.13
2018-04-26T07:01:43.208Z,326.25
2018-04-26T07:02:43.201Z,298.13
2018-04-26T07:03:43.201Z,281.25
2018-04-26T07:04:43.194Z,326.25
2018-04-26T07:05:43.253Z,416.25
2018-04-26T07:06:43.200Z,506.25
2018-04-26T07:07:43.181Z,601.88
2018-04-26T07:08:43.192Z,663.75
2018-04-26T07:09:43.187Z,601.88
2018-04-26T07:10:43.183Z,590.63
2018-04-26T07:11:43.179Z,658.13
2018-04-26T07:12:43.175Z,601.88
2018-04-26T07:13:43.173Z,551.25
2018-04-26T07:14:43.165Z,500.63
2018-04-26T07:15:43.160Z,444.38
2018-04-26T07:16:43.167Z,455.63
2018-04-26T07:17:43.158Z,489.38
2018-04-26T07:18:43.151Z,511.88
2018-04-26T07:19:43.151Z,551.25
2018-04-26T07:20:43.173Z,568.13
2018-04-26T07:21:43.276Z,562.50
2018-04-26T07:22:43.183Z,540.00
2018-04-26T07:23:43.144Z,466.88
2018-04-26T07:24:43.137Z,410.63
2018-04-26T07:25:43.148Z,466.88
2018-04-26T07:26:43.150Z,466.88
2018-04-26T07:27:43.139Z,393.75
2018-04-26T07:28:43.148Z,382.50
2018-04-26T07:29:43.133Z,416.25
2018-04-26T07:30:43.127Z,360.00
2018-04-26T07:31:43.125Z,326.25
2018-04-26T07:32:43.119Z,382.50
2018-04-26T07:33:43.124Z,455.63
2018-04-26T07:34:43.130Z,478.13
2018-04-26T07:35:43.117Z,416.25
2018-04-26T07:36:43.116Z,354.38
2018-04-26T07:37:43.124Z,354.38
2018-04-26T07:38:43.107Z,365.63
2018-04-26T07:39:43.113Z,382.50
2018-04-26T07:40:43.104Z,421.88
2018-04-26T07:41:43.106Z,466.88
2018-04-26T07:42:43.096Z,500.63
2018-04-26T07:43:43.104Z,455.63
2018-04-26T07:44:43.190Z,376.88
2018-04-26T07:45:43.089Z,337.50
2018-04-26T07:46:43.093Z,331.88
2018-04-26T07:47:43.089Z,360.00
2018-04-26T07:48:43.089Z,421.88
2018-04-26T07:49:43.083Z,376.88
2018-04-26T07:50:43.076Z,309.38
2018-04-26T07:51:43.084Z,264.38
2018-04-26T07:52:43.076Z,247.50
2018-04-26T07:53:43.075Z,236.25
2018-04-26T07:54:43.071Z,230.63
2018-04-26T07:55:43.062Z,219.38
2018-04-26T07:56:43.059Z,219.38
2018-04-26T07:57:43.063Z,230.63
2018-04-26T07:58:43.063Z,236.25
2018-04-26T07:59:43.057Z,236.25
2018-04-26T08:00:43.056Z,236.25
2018-04-26T08:01:43.126Z,230.63
2018-04-26T08:02:43.062Z,275.63
2018-04-26T08:03:43.050Z,281.25
2018-04-26T08:04:43.047Z,270.00
2018-04-26T08:05:43.044Z,275.63
2018-04-26T08:06:43.027Z,236.25
2018-04-26T08:07:43.038Z,225.00
2018-04-26T08:08:43.030Z,213.75
2018-04-26T08:09:43.031Z,213.75
2018-04-26T08:10:43.041Z,202.50
2018-04-26T08:11:43.066Z,208.13
2018-04-26T08:12:43.025Z,213.75
2018-04-26T08:13:43.017Z,219.38
2018-04-26T08:14:43.005Z,213.75
2018-04-26T08:15:43.006Z,225.00
2018-04-26T08:16:43.001Z,225.00
2018-04-26T08:17:43.006Z,196.88
2018-04-26T08:18:42.998Z,185.63
2018-04-26T08:19:43.077Z,180.00
2018-04-26T08:20:42.993Z,174.38
2018-04-26T08:21:42.988Z,174.38
2018-04-26T08:22:42.985Z,185.63
2018-04-26T08:23:42.982Z,213.75
2018-04-26T08:24:42.983Z,208.13
2018-04-26T08:25:42.971Z,191.25
2018-04-26T08:26:42.967Z,202.50
2018-04-26T08:27:42.965Z,213.75
2018-04-26T08:28:42.959Z,191.25
2018-04-26T08:29:42.983Z,174.38
2018-04-26T08:30:42.959Z,180.00
2018-04-26T08:31:42.948Z,225.00
2018-04-26T08:32:42.953Z,247.50
2018-04-26T08:33:42.942Z,230.63
2018-04-26T08:34:42.946Z,208.13
2018-04-26T08:35:42.947Z,202.50
2018-04-26T08:36:43.018Z,230.63
2018-04-26T08:37:42.931Z,270.00
2018-04-26T08:38:42.927Z,303.75
2018-04-26T08:39:42.928Z,303.75
2018-04-26T08:40:42.920Z,326.25
2018-04-26T08:41:42.915Z,360.00
2018-04-26T08:42:42.917Z,410.63
2018-04-26T08:43:42.905Z,416.25
2018-04-26T08:44:42.925Z,433.13
2018-04-26T08:45:42.900Z,444.38
2018-04-26T08:46:42.898Z,495.00
2018-04-26T08:47:42.896Z,630.00
2018-04-26T08:48:42.881Z,742.50
2018-04-26T08:49:42.883Z,911.25
2018-04-26T08:50:42.886Z,933.75
2018-04-26T08:51:42.878Z,804.38
2018-04-26T08:52:42.879Z,748.13
2018-04-26T08:53:42.872Z,720.00
2018-04-26T08:54:42.868Z,596.25
2018-04-26T08:55:42.886Z,461.25
2018-04-26T08:56:42.963Z,416.25
2018-04-26T08:57:42.995Z,433.13
2018-04-26T08:58:42.854Z,410.63
2018-04-26T08:59:42.914Z,393.75
2018-04-26T09:00:42.850Z,444.38
2018-04-26T09:01:42.841Z,461.25
2018-04-26T09:02:42.847Z,382.50
2018-04-26T09:03:42.859Z,354.38
2018-04-26T09:04:42.831Z,376.88
2018-04-26T09:05:42.835Z,399.38
2018-04-26T09:06:42.893Z,388.13
2018-04-26T09:07:42.816Z,331.88
2018-04-26T09:08:42.825Z,309.38
2018-04-26T09:09:42.823Z,303.75
2018-04-26T09:10:42.819Z,270.00
2018-04-26T09:11:42.814Z,225.00
2018-04-26T09:12:42.812Z,208.13
2018-04-26T09:13:42.809Z,225.00
2018-04-26T09:14:42.816Z,230.63
2018-04-26T09:15:42.827Z,219.38
2018-04-26T09:16:42.850Z,196.88
2018-04-26T09:17:42.812Z,196.88
2018-04-26T09:18:42.792Z,202.50
2018-04-26T09:19:42.794Z,202.50
2018-04-26T09:20:42.787Z,213.75
2018-04-26T09:21:42.785Z,241.88
2018-04-26T09:22:42.779Z,253.13
2018-04-26T09:23:42.779Z,253.13
2018-04-26T09:24:42.786Z,230.63
2018-04-26T09:25:42.770Z,225.00
2018-04-26T09:26:42.763Z,213.75
2018-04-26T09:27:42.762Z,196.88
2018-04-26T09:28:42.763Z,196.88
2018-04-26T09:29:42.760Z,196.88
2018-04-26T09:30:42.753Z,196.88
2018-04-26T09:31:42.775Z,196.88
2018-04-26T09:32:42.745Z,191.25
2018-04-26T09:33:42.748Z,196.88
2018-04-26T09:34:42.729Z,196.88
2018-04-26T09:35:42.737Z,196.88
2018-04-26T09:36:42.726Z,191.25
2018-04-26T09:37:42.732Z,185.63
2018-04-26T09:38:42.777Z,168.75
2018-04-26T09:39:42.723Z,157.50
2018-04-26T09:40:42.727Z,151.88
2018-04-26T09:41:42.713Z,157.50
2018-04-26T09:42:42.718Z,185.63
2018-04-26T09:43:42.705Z,208.13
2018-04-26T09:44:42.707Z,202.50
2018-04-26T09:45:42.707Z,191.25
2018-04-26T09:46:42.694Z,191.25
2018-04-26T09:47:42.691Z,202.50
2018-04-26T09:48:42.736Z,208.13
2018-04-26T09:49:42.698Z,202.50
2018-04-26T09:50:42.685Z,225.00
2018-04-26T09:51:42.682Z,275.63
2018-04-26T09:52:42.680Z,309.38
2018-04-26T09:53:42.675Z,337.50
2018-04-26T09:54:42.674Z,388.13
2018-04-26T09:55:42.662Z,421.88
2018-04-26T09:56:42.665Z,421.88
2018-04-26T09:57:42.671Z,433.13
2018-04-26T09:58:42.656Z,450.00
2018-04-26T09:59:42.654Z,472.50
2018-04-26T10:00:42.657Z,472.50
2018-04-26T10:01:42.670Z,444.38
2018-04-26T10:02:42.705Z,438.75
2018-04-26T10:03:42.644Z,444.38
2018-04-26T10:04:42.647Z,466.88
2018-04-26T10:05:42.633Z,517.50
2018-04-26T10:06:42.623Z,556.88
2018-04-26T10:07:42.640Z,596.25
2018-04-26T10:08:42.639Z,635.63
2018-04-26T10:09:42.624Z,703.13
2018-04-26T10:10:42.620Z,731.25
2018-04-26T10:11:42.616Z,815.63
2018-04-26T10:12:42.609Z,855.00
2018-04-26T10:13:42.625Z,843.75
2018-04-26T10:14:42.610Z,787.50
2018-04-26T10:15:42.601Z,765.00
2018-04-26T10:16:42.601Z,748.13
2018-04-26T10:17:42.606Z,731.25
2018-04-26T10:18:42.601Z,658.13
2018-04-26T10:19:42.598Z,590.63
2018-04-26T10:20:42.594Z,556.88
2018-04-26T10:21:42.590Z,568.13
2018-04-26T10:22:42.588Z,596.25
2018-04-26T10:23:42.584Z,641.25
2018-04-26T10:24:42.584Z,635.63
2018-04-26T10:25:42.583Z,663.75
2018-04-26T10:26:42.581Z,691.88
2018-04-26T10:27:42.577Z,691.88
2018-04-26T10:28:42.571Z,686.25
2018-04-26T10:29:42.570Z,714.38
2018-04-26T10:30:42.564Z,736.88
2018-04-26T10:31:42.571Z,753.75
2018-04-26T10:32:42.567Z,742.50
2018-04-26T10:33:42.559Z,748.13
2018-04-26T10:34:42.561Z,765.00
2018-04-26T10:35:42.561Z,781.88
2018-04-26T10:36:42.565Z,798.75
2018-04-26T10:37:42.557Z,855.00
2018-04-26T10:38:42.558Z,866.25
2018-04-26T10:39:42.548Z,855.00
2018-04-26T10:40:42.553Z,849.38
2018-04-26T10:41:42.545Z,843.75
2018-04-26T10:42:42.548Z,821.25
2018-04-26T10:43:42.545Z,832.50
2018-04-26T10:44:42.537Z,871.88
2018-04-26T10:45:42.541Z,871.88
2018-04-26T10:46:42.540Z,866.25
2018-04-26T10:47:42.546Z,804.38
2018-04-26T10:48:42.543Z,736.88
2018-04-26T10:49:42.536Z,731.25
2018-04-26T10:50:42.529Z,753.75
2018-04-26T10:51:42.529Z,815.63
2018-04-26T10:52:42.529Z,832.50
2018-04-26T10:53:42.532Z,855.00
2018-04-26T10:54:42.532Z,933.75
2018-04-26T10:55:42.524Z,1029.38
2018-04-26T10:56:42.528Z,1035.00
2018-04-26T10:57:42.527Z,894.38
2018-04-26T10:58:42.528Z,776.25
2018-04-26T10:59:42.515Z,731.25
2018-04-26T11:00:42.515Z,658.13
2018-04-26T11:01:42.518Z,579.38
2018-04-26T11:02:42.515Z,511.88
2018-04-26T11:03:42.535Z,461.25
2018-04-26T11:04:42.505Z,438.75
2018-04-26T11:05:42.518Z,450.00
2018-04-26T11:06:42.506Z,466.88
2018-04-26T11:07:42.515Z,500.63
2018-04-26T11:08:42.507Z,511.88
2018-04-26T11:09:42.499Z,534.38
2018-04-26T11:10:42.503Z,675.00
2018-04-26T11:11:42.505Z,759.38
2018-04-26T11:12:42.504Z,821.25
2018-04-26T11:13:42.501Z,793.13
2018-04-26T11:14:42.495Z,776.25
2018-04-26T11:15:42.510Z,781.88
2018-04-26T11:16:42.496Z,680.63
2018-04-26T11:17:42.499Z,545.63
2018-04-26T11:18:42.492Z,506.25
2018-04-26T11:19:42.490Z,601.88
2018-04-26T11:20:42.489Z,731.25
2018-04-26T11:21:42.480Z,815.63
2018-04-26T11:22:42.486Z,798.75
2018-04-26T11:23:42.490Z,658.13
2018-04-26T11:24:42.472Z,517.50
2018-04-26T11:25:42.477Z,455.63
2018-04-26T11:26:42.474Z,416.25
2018-04-26T11:27:42.474Z,438.75
2018-04-26T11:28:42.479Z,534.38
2018-04-26T11:29:42.472Z,613.13
2018-04-26T11:30:42.475Z,585.00
2018-04-26T11:31:42.473Z,500.63
2018-04-26T11:32:42.470Z,421.88
2018-04-26T11:33:42.464Z,343.13
2018-04-26T11:34:42.454Z,331.88
2018-04-26T11:35:42.461Z,337.50
2018-04-26T11:36:42.463Z,320.63
2018-04-26T11:37:42.464Z,343.13
2018-04-26T11:38:42.463Z,376.88
2018-04-26T11:39:42.454Z,371.25
2018-04-26T11:40:42.466Z,365.63
2018-04-26T11:41:42.446Z,382.50
2018-04-26T11:42:42.446Z,388.13
2018-04-26T11:43:42.450Z,399.38
2018-04-26T11:44:42.454Z,360.00
2018-04-26T11:45:42.445Z,309.38
2018-04-26T11:46:42.490Z,320.63
2018-04-26T11:47:42.445Z,433.13
2018-04-26T11:48:42.432Z,579.38
2018-04-26T11:49:42.429Z,720.00
2018-04-26T11:50:42.433Z,821.25
2018-04-26T11:51:42.428Z,877.50
2018-04-26T11:52:42.432Z,922.50
2018-04-26T11:53:42.428Z,933.75
2018-04-26T11:54:42.421Z,905.63
2018-04-26T11:55:42.431Z,855.00
2018-04-26T11:56:42.422Z,753.75
2018-04-26T11:57:42.420Z,669.38
2018-04-26T11:58:42.414Z,646.88
2018-04-26T11:59:42.409Z,708.75
2018-04-26T12:00:42.415Z,759.38
2018-04-26T12:01:42.417Z,663.75
2018-04-26T12:02:42.508Z,585.00
2018-04-26T12:03:42.409Z,545.63
2018-04-26T12:04:42.407Z,613.13
2018-04-26T12:05:42.461Z,871.88
2018-04-26T12:06:42.404Z,1068.75
2018-04-26T12:07:42.482Z,1046.25
2018-04-26T12:08:42.406Z,1023.75
2018-04-26T12:09:42.398Z,1023.75
2018-04-26T12:10:42.397Z,933.75
2018-04-26T12:11:42.397Z,855.00
2018-04-26T12:12:42.389Z,838.13
2018-04-26T12:13:42.398Z,815.63
2018-04-26T12:14:42.396Z,826.88
2018-04-26T12:15:42.399Z,826.88
2018-04-26T12:16:42.395Z,798.75
2018-04-26T12:17:42.390Z,725.63
2018-04-26T12:18:42.389Z,669.38
2018-04-26T12:19:42.387Z,641.25
2018-04-26T12:20:42.384Z,630.00
2018-04-26T12:21:42.382Z,630.00
2018-04-26T12:22:42.397Z,568.13
2018-04-26T12:23:42.382Z,483.75
2018-04-26T12:24:42.385Z,438.75
2018-04-26T12:25:42.383Z,450.00
2018-04-26T12:26:42.375Z,455.63
2018-04-26T12:27:42.383Z,438.75
2018-04-26T12:28:42.377Z,483.75
2018-04-26T12:29:42.379Z,585.00
2018-04-26T12:30:42.377Z,585.00
2018-04-26T12:31:42.378Z,641.25
2018-04-26T12:32:42.373Z,793.13
2018-04-26T12:33:42.433Z,821.25
2018-04-26T12:34:42.363Z,731.25
2018-04-26T12:35:42.376Z,568.13
2018-04-26T12:36:42.370Z,421.88
2018-04-26T12:37:42.371Z,382.50
2018-04-26T12:38:42.388Z,405.00
2018-04-26T12:39:42.358Z,421.88
2018-04-26T12:40:42.354Z,393.75
2018-04-26T12:41:42.362Z,315.00
2018-04-26T12:42:42.355Z,270.00
2018-04-26T12:43:42.352Z,275.63
2018-04-26T12:44:42.346Z,315.00
2018-04-26T12:45:42.350Z,421.88
2018-04-26T12:46:42.349Z,523.13
2018-04-26T12:47:42.344Z,528.75
2018-04-26T12:48:42.343Z,478.13
2018-04-26T12:49:42.343Z,410.63
2018-04-26T12:50:42.334Z,354.38
2018-04-26T12:51:42.346Z,348.75
2018-04-26T12:52:42.335Z,360.00
2018-04-26T12:53:42.327Z,331.88
2018-04-26T12:54:42.328Z,281.25
2018-04-26T12:55:42.326Z,219.38
2018-04-26T12:56:42.326Z,191.25
2018-04-26T12:57:42.321Z,185.63
2018-04-26T12:58:42.320Z,202.50
2018-04-26T12:59:42.318Z,275.63
2018-04-26T13:00:42.314Z,348.75
2018-04-26T13:01:42.314Z,405.00
2018-04-26T13:02:42.315Z,540.00
2018-04-26T13:03:42.304Z,736.88
2018-04-26T13:04:42.305Z,742.50
2018-04-26T13:05:42.316Z,646.88
2018-04-26T13:06:42.306Z,523.13
2018-04-26T13:07:42.295Z,393.75
2018-04-26T13:08:42.304Z,320.63
2018-04-26T13:09:42.290Z,286.88
2018-04-26T13:10:42.367Z,292.50
2018-04-26T13:11:42.289Z,360.00
2018-04-26T13:12:42.397Z,551.25
2018-04-26T13:13:42.286Z,832.50
2018-04-26T13:14:42.287Z,1091.25
2018-04-26T13:15:42.318Z,1192.50
2018-04-26T13:16:42.279Z,1265.63
2018-04-26T13:17:42.271Z,1141.88
2018-04-26T13:18:42.268Z,961.88
2018-04-26T13:19:42.271Z,877.50
2018-04-26T13:20:42.271Z,849.38
2018-04-26T13:21:42.275Z,843.75
2018-04-26T13:22:42.266Z,860.63
2018-04-26T13:23:42.288Z,815.63
2018-04-26T13:24:42.265Z,720.00
2018-04-26T13:25:42.268Z,635.63
2018-04-26T13:26:42.257Z,590.63
2018-04-26T13:27:42.264Z,568.13
2018-04-26T13:28:42.262Z,517.50
2018-04-26T13:29:42.255Z,450.00
2018-04-26T13:30:42.266Z,405.00
2018-04-26T13:31:42.253Z,388.13
2018-04-26T13:32:42.254Z,371.25
2018-04-26T13:33:42.261Z,399.38
2018-04-26T13:34:42.253Z,472.50
2018-04-26T13:35:42.248Z,540.00
2018-04-26T13:36:42.281Z,540.00
2018-04-26T13:37:42.279Z,528.75
2018-04-26T13:38:42.256Z,573.75
2018-04-26T13:39:42.310Z,691.88
2018-04-26T13:40:42.249Z,787.50
2018-04-26T13:41:42.247Z,883.13
2018-04-26T13:42:42.240Z,939.38
2018-04-26T13:43:42.251Z,916.88
2018-04-26T13:44:42.234Z,855.00
2018-04-26T13:45:42.243Z,759.38
2018-04-26T13:46:42.257Z,663.75
2018-04-26T13:47:42.233Z,697.50
2018-04-26T13:48:42.250Z,928.13
2018-04-26T13:49:42.240Z,1141.88
2018-04-26T13:50:42.233Z,1153.13